RJCO(METAR)
10/20 06:00
METAR RJCO 192100Z 12006KT 9999 FEW020 BKN040 04/02 Q1025 RMK 1CU020
6CU040 A3026=
戻る
トップページへ戻る
IMOC Co,.Ltd.